Time;durP1;ratioP1;P1;durP2;ratioP2;P2;SDS_P1;SDS_P2;PMS_P1;PMS_P2;Temp;Humidity;BMP_temperature;BMP_pressure;BME280_temperature;BME280_humidity;BME280_pressure;Samples;Min_cycle;Max_cycle;Signal;HPM_P1;HPM_P2
2024/01/19 06:00:37;;;;;;;20.00;15.60;;;;;;;;;;1741760;28;20422;-75
2024/01/19 06:01:28;;;;;;;20.25;17.17;;;;;;;;;;1742065;28;20444;-76
2024/01/19 06:02:20;;;;;;;22.55;17.83;;;;;;;;;;1741844;28;20714;-75
2024/01/19 06:03:12;;;;;;;19.20;16.75;;;;;;;;;;1741104;28;20198;-75
2024/01/19 06:04:03;;;;;;;20.17;16.27;;;;;;;;;;1741859;28;20227;-75
2024/01/19 06:04:54;;;;;;;19.23;17.02;;;;;;;;;;1742022;28;20199;-74
2024/01/19 06:05:46;;;;;;;21.08;16.90;;;;;;;;;;1741926;28;20206;-74
2024/01/19 06:06:37;;;;;;;18.48;15.80;;;;;;;;;;1742072;28;20206;-74
2024/01/19 06:07:30;;;;;;;21.70;16.70;;;;;;;;;;1742008;28;20571;-74
2024/01/19 06:08:22;;;;;;;20.90;17.23;;;;;;;;;;1735068;28;20202;-74
2024/01/19 06:09:13;;;;;;;21.85;17.50;;;;;;;;;;1741399;28;20195;-74
2024/01/19 06:10:05;;;;;;;26.58;17.20;;;;;;;;;;1741513;28;20209;-75
2024/01/19 06:10:57;;;;;;;20.95;18.13;;;;;;;;;;1741961;28;20202;-74
2024/01/19 06:11:48;;;;;;;21.85;17.92;;;;;;;;;;1741999;28;20214;-74
2024/01/19 06:12:39;;;;;;;19.45;15.50;;;;;;;;;;1741961;28;20253;-74
2024/01/19 06:13:31;;;;;;;19.15;16.33;;;;;;;;;;1740578;28;20195;-74
2024/01/19 06:14:23;;;;;;;20.42;15.85;;;;;;;;;;1742027;28;20663;-74
2024/01/19 06:15:14;;;;;;;18.05;15.85;;;;;;;;;;1742018;28;20195;-74
2024/01/19 06:16:08;;;;;;;18.70;16.20;;;;;;;;;;1741968;28;20566;-74
2024/01/19 06:16:59;;;;;;;22.05;15.95;;;;;;;;;;1741987;28;20226;-74
2024/01/19 06:17:51;;;;;;;17.92;15.98;;;;;;;;;;1741628;28;20199;-74
2024/01/19 06:18:42;;;;;;;19.92;17.40;;;;;;;;;;1741929;28;20203;-74
2024/01/19 06:19:33;;;;;;;21.27;17.90;;;;;;;;;;1741742;28;20277;-74
2024/01/19 06:20:26;;;;;;;21.83;18.67;;;;;;;;;;1741518;28;20203;-74
2024/01/19 06:21:17;;;;;;;23.20;18.17;;;;;;;;;;1741982;28;20215;-74
2024/01/19 06:22:08;;;;;;;19.48;16.75;;;;;;;;;;1741927;28;20196;-74
2024/01/19 06:23:00;;;;;;;23.10;17.02;;;;;;;;;;1741915;28;20631;-74
2024/01/19 06:23:51;;;;;;;21.52;18.73;;;;;;;;;;1741791;28;20226;-74
2024/01/19 06:24:43;;;;;;;23.02;18.85;;;;;;;;;;1741822;28;20602;-74
2024/01/19 06:25:34;;;;;;;22.15;19.25;;;;;;;;;;1741377;28;20216;-74
2024/01/19 06:26:27;;;;;;;25.55;19.55;;;;;;;;;;1741471;28;20566;-74
2024/01/19 06:27:21;;;;;;;26.35;18.88;;;;;;;;;;1741963;28;20195;-74
2024/01/19 06:28:12;;;;;;;24.70;19.27;;;;;;;;;;1733709;28;20207;-75
2024/01/19 06:29:04;;;;;;;26.08;19.98;;;;;;;;;;1739398;28;20202;-74
2024/01/19 06:29:56;;;;;;;21.30;18.80;;;;;;;;;;1735252;28;20212;-74
2024/01/19 06:30:47;;;;;;;27.40;19.67;;;;;;;;;;1737555;28;20695;-74
2024/01/19 06:31:44;;;;;;;22.10;18.88;;;;;;;;;;1741710;28;20191;-74
2024/01/19 06:32:36;;;;;;;23.52;20.40;;;;;;;;;;1741952;28;20408;-74
2024/01/19 06:33:27;;;;;;;24.42;19.35;;;;;;;;;;1741980;28;20218;-74
2024/01/19 06:34:19;;;;;;;22.48;20.05;;;;;;;;;;1741811;28;20658;-74
2024/01/19 06:35:10;;;;;;;24.70;19.90;;;;;;;;;;1741556;28;20199;-74
2024/01/19 06:36:02;;;;;;;23.67;20.65;;;;;;;;;;1741966;28;20199;-74
2024/01/19 06:36:53;;;;;;;23.23;19.52;;;;;;;;;;1741824;28;20225;-74
2024/01/19 06:37:46;;;;;;;22.35;19.38;;;;;;;;;;1741956;28;20209;-75
2024/01/19 06:38:37;;;;;;;22.70;18.55;;;;;;;;;;1741828;28;20210;-75
2024/01/19 06:39:29;;;;;;;22.85;18.02;;;;;;;;;;1741840;28;20262;-74
2024/01/19 06:40:20;;;;;;;21.55;18.38;;;;;;;;;;1741135;28;20222;-74
2024/01/19 06:41:12;;;;;;;19.65;17.33;;;;;;;;;;1741610;28;20608;-74
2024/01/19 06:42:04;;;;;;;24.20;19.65;;;;;;;;;;1741909;28;20551;-75
2024/01/19 06:42:55;;;;;;;24.40;19.42;;;;;;;;;;1741763;28;20209;-74
2024/01/19 06:43:47;;;;;;;23.90;18.92;;;;;;;;;;1741627;28;20322;-75
2024/01/19 06:44:42;;;;;;;21.92;19.15;;;;;;;;;;1741818;28;20207;-74
2024/01/19 06:45:34;;;;;;;20.90;18.20;;;;;;;;;;1741901;28;20656;-75
2024/01/19 06:46:25;;;;;;;21.75;18.52;;;;;;;;;;1741746;28;20597;-74
2024/01/19 06:47:20;;;;;;;23.75;18.85;;;;;;;;;;1741752;28;20199;-74
2024/01/19 06:48:11;;;;;;;21.95;19.27;;;;;;;;;;1741826;28;20611;-74
2024/01/19 06:49:02;;;;;;;21.63;19.42;;;;;;;;;;1741781;28;20274;-74
2024/01/19 06:49:54;;;;;;;25.77;20.42;;;;;;;;;;1741099;28;20210;-75
2024/01/19 06:50:45;;;;;;;20.92;18.75;;;;;;;;;;1741260;28;20195;-75
2024/01/19 06:51:36;;;;;;;26.25;20.30;;;;;;;;;;1741664;28;20267;-74
2024/01/19 06:52:28;;;;;;;23.20;19.30;;;;;;;;;;1741851;28;20671;-75
2024/01/19 06:53:19;;;;;;;22.50;19.40;;;;;;;;;;1741845;28;20226;-74
2024/01/19 06:54:11;;;;;;;23.23;19.80;;;;;;;;;;1741785;28;20219;-75
2024/01/19 06:55:02;;;;;;;25.15;20.58;;;;;;;;;;1741748;28;20203;-75
2024/01/19 06:55:55;;;;;;;23.08;20.08;;;;;;;;;;1741753;28;20222;-74
2024/01/19 06:56:46;;;;;;;24.60;20.83;;;;;;;;;;1741869;28;20672;-74
2024/01/19 06:57:37;;;;;;;24.73;19.95;;;;;;;;;;1741795;28;20265;-75
2024/01/19 06:58:29;;;;;;;24.70;21.50;;;;;;;;;;1740814;28;20201;-74
2024/01/19 06:59:20;;;;;;;23.92;19.17;;;;;;;;;;1741194;28;20214;-74
2024/01/19 07:00:12;;;;;;;21.45;19.33;;;;;;;;;;1740574;28;20699;-75
2024/01/19 07:01:04;;;;;;;25.95;19.48;;;;;;;;;;1741495;28;20222;-75
2024/01/19 07:01:55;;;;;;;22.35;20.05;;;;;;;;;;1741703;28;20210;-75
2024/01/19 07:02:48;;;;;;;22.70;19.30;;;;;;;;;;1741444;28;20199;-75
2024/01/19 07:03:40;;;;;;;23.58;20.50;;;;;;;;;;1741231;28;20579;-75
2024/01/19 07:04:31;;;;;;;25.98;20.65;;;;;;;;;;1741650;28;20199;-75
2024/01/19 07:05:22;;;;;;;23.92;20.30;;;;;;;;;;1741345;28;20207;-75
2024/01/19 07:06:14;;;;;;;22.45;19.60;;;;;;;;;;1741652;28;20376;-75
2024/01/19 07:07:05;;;;;;;22.33;19.20;;;;;;;;;;1741630;28;20219;-74
2024/01/19 07:07:58;;;;;;;22.40;20.00;;;;;;;;;;1741414;28;20207;-74
2024/01/19 07:08:49;;;;;;;23.00;18.98;;;;;;;;;;1741530;28;20207;-74
2024/01/19 07:09:40;;;;;;;26.98;20.52;;;;;;;;;;1741651;28;20202;-74
2024/01/19 07:10:32;;;;;;;21.27;18.63;;;;;;;;;;1741117;28;20203;-75
2024/01/19 07:11:23;;;;;;;22.55;19.63;;;;;;;;;;1741605;28;20211;-74
2024/01/19 07:12:16;;;;;;;22.15;19.38;;;;;;;;;;1741612;28;20802;-75
2024/01/19 07:13:08;;;;;;;21.08;18.15;;;;;;;;;;1740108;28;20195;-75
2024/01/19 07:13:59;;;;;;;23.88;20.30;;;;;;;;;;1741422;28;20240;-75
2024/01/19 07:14:50;;;;;;;21.60;19.02;;;;;;;;;;1741448;28;20199;-74
2024/01/19 07:15:43;;;;;;;22.10;19.38;;;;;;;;;;1741237;28;20666;-75
2024/01/19 07:16:34;;;;;;;24.30;19.63;;;;;;;;;;1741436;28;20203;-75
2024/01/19 07:17:25;;;;;;;23.10;18.88;;;;;;;;;;1741637;28;20203;-74
2024/01/19 07:18:18;;;;;;;22.50;18.98;;;;;;;;;;1741556;28;20206;-75
2024/01/19 07:19:09;;;;;;;22.15;18.75;;;;;;;;;;1741563;28;20203;-74
2024/01/19 07:20:03;;;;;;;22.25;18.17;;;;;;;;;;1741134;28;20306;-75
2024/01/19 07:20:55;;;;;;;20.98;18.77;;;;;;;;;;1741600;28;20298;-75
2024/01/19 07:21:47;;;;;;;22.27;19.88;;;;;;;;;;1741515;28;20199;-74
2024/01/19 07:22:38;;;;;;;19.88;17.65;;;;;;;;;;1741057;28;20203;-74
2024/01/19 07:23:29;;;;;;;22.83;19.50;;;;;;;;;;1741147;28;20573;-74
2024/01/19 07:24:21;;;;;;;23.02;19.42;;;;;;;;;;1741491;28;20237;-75
2024/01/19 07:25:13;;;;;;;20.50;18.38;;;;;;;;;;1741536;28;20671;-75
2024/01/19 07:26:04;;;;;;;20.73;18.63;;;;;;;;;;1741496;28;20570;-74
2024/01/19 07:26:56;;;;;;;22.00;18.80;;;;;;;;;;1741515;28;20578;-74
2024/01/19 07:27:47;;;;;;;23.45;19.05;;;;;;;;;;1741339;28;20573;-74
2024/01/19 07:28:39;;;;;;;22.42;18.67;;;;;;;;;;1741527;28;20570;-74
2024/01/19 07:29:31;;;;;;;22.02;18.55;;;;;;;;;;1741425;28;20199;-74
2024/01/19 07:30:23;;;;;;;22.35;18.17;;;;;;;;;;1740877;28;20249;-74
2024/01/19 07:31:14;;;;;;;21.85;18.02;;;;;;;;;;1741442;28;20203;-74
2024/01/19 07:32:05;;;;;;;22.17;19.30;;;;;;;;;;1741394;28;20199;-74
2024/01/19 07:32:57;;;;;;;20.35;17.98;;;;;;;;;;1741553;28;20274;-74
2024/01/19 07:33:50;;;;;;;22.08;18.90;;;;;;;;;;1741336;28;20244;-74
2024/01/19 07:34:42;;;;;;;19.38;17.15;;;;;;;;;;1741479;28;20210;-74
2024/01/19 07:35:33;;;;;;;20.70;18.17;;;;;;;;;;1741340;28;20218;-75
2024/01/19 07:36:24;;;;;;;22.63;19.10;;;;;;;;;;1741501;28;20233;-74
2024/01/19 07:37:16;;;;;;;22.73;18.90;;;;;;;;;;1741330;28;20231;-74
2024/01/19 07:38:07;;;;;;;22.40;18.48;;;;;;;;;;1741390;28;20195;-74
2024/01/19 07:38:58;;;;;;;22.33;18.92;;;;;;;;;;1741129;28;20222;-74
2024/01/19 07:39:50;;;;;;;20.83;18.60;;;;;;;;;;1741451;28;20195;-74
2024/01/19 07:40:41;;;;;;;22.15;18.23;;;;;;;;;;1741264;28;20207;-74
2024/01/19 07:41:33;;;;;;;25.08;20.20;;;;;;;;;;1741311;28;20276;-74
2024/01/19 07:42:24;;;;;;;23.42;18.80;;;;;;;;;;1741168;28;20207;-74
2024/01/19 07:43:16;;;;;;;22.45;18.50;;;;;;;;;;1741350;28;20617;-74
2024/01/19 07:44:08;;;;;;;21.58;18.27;;;;;;;;;;1741203;28;20246;-74
2024/01/19 07:44:59;;;;;;;21.38;19.15;;;;;;;;;;1740133;28;20211;-75
2024/01/19 07:45:51;;;;;;;22.27;18.27;;;;;;;;;;1741338;28;20252;-74
2024/01/19 07:46:43;;;;;;;22.70;18.13;;;;;;;;;;1741368;28;20196;-75
2024/01/19 07:47:34;;;;;;;23.63;18.85;;;;;;;;;;1741359;28;20202;-74
2024/01/19 07:48:25;;;;;;;21.98;18.67;;;;;;;;;;1741336;28;20199;-74
2024/01/19 07:49:21;;;;;;;24.10;19.10;;;;;;;;;;1741254;28;20231;-75
2024/01/19 07:50:12;;;;;;;24.02;19.75;;;;;;;;;;1740854;28;20207;-75
2024/01/19 07:51:03;;;;;;;22.52;19.65;;;;;;;;;;1741241;28;20199;-75
2024/01/19 07:51:55;;;;;;;23.35;20.00;;;;;;;;;;1741373;28;20802;-75
2024/01/19 07:52:46;;;;;;;23.52;21.02;;;;;;;;;;1741202;28;20251;-74
2024/01/19 07:53:37;;;;;;;21.92;19.58;;;;;;;;;;1741273;28;20206;-74
2024/01/19 07:54:29;;;;;;;24.73;19.45;;;;;;;;;;1741231;28;20202;-75
2024/01/19 07:55:21;;;;;;;24.10;19.95;;;;;;;;;;1741362;28;20217;-74
2024/01/19 07:56:13;;;;;;;23.73;21.15;;;;;;;;;;1740895;28;20191;-74
2024/01/19 07:57:04;;;;;;;23.45;19.58;;;;;;;;;;1741174;28;20210;-74
2024/01/19 07:57:56;;;;;;;24.65;20.17;;;;;;;;;;1741312;28;20223;-74
2024/01/19 07:58:47;;;;;;;23.52;20.33;;;;;;;;;;1741341;28;20203;-74
2024/01/19 07:59:39;;;;;;;22.73;19.10;;;;;;;;;;1741848;28;20268;-74
2024/01/19 08:00:30;;;;;;;24.00;19.88;;;;;;;;;;1741401;28;20609;-74
2024/01/19 08:01:22;;;;;;;23.10;19.95;;;;;;;;;;1741691;28;20195;-75
2024/01/19 08:02:13;;;;;;;24.75;20.67;;;;;;;;;;1741849;28;20214;-75
2024/01/19 08:03:05;;;;;;;21.10;19.00;;;;;;;;;;1741817;28;20248;-75
2024/01/19 08:03:57;;;;;;;22.92;19.23;;;;;;;;;;1741878;28;20215;-74
2024/01/19 08:04:49;;;;;;;24.10;19.83;;;;;;;;;;1742129;28;20210;-74
2024/01/19 08:05:41;;;;;;;22.67;19.55;;;;;;;;;;1741856;28;20218;-75
2024/01/19 08:06:32;;;;;;;22.42;18.92;;;;;;;;;;1742018;28;20211;-75
2024/01/19 08:07:24;;;;;;;23.98;19.40;;;;;;;;;;1741261;28;20214;-74
2024/01/19 08:08:16;;;;;;;21.98;19.60;;;;;;;;;;1741643;28;20234;-74
2024/01/19 08:09:11;;;;;;;22.60;19.55;;;;;;;;;;1741588;28;20604;-74
2024/01/19 08:10:02;;;;;;;22.45;18.40;;;;;;;;;;1741072;28;20203;-74
2024/01/19 08:10:54;;;;;;;23.05;19.40;;;;;;;;;;1741280;28;20199;-74
2024/01/19 08:11:45;;;;;;;24.90;19.10;;;;;;;;;;1741458;28;20211;-75
2024/01/19 08:12:36;;;;;;;22.85;18.67;;;;;;;;;;1741592;28;20273;-74
2024/01/19 08:13:28;;;;;;;25.20;19.65;;;;;;;;;;1741365;28;20708;-74
2024/01/19 08:14:19;;;;;;;20.42;18.33;;;;;;;;;;1741426;28;20779;-74
2024/01/19 08:15:11;;;;;;;21.88;19.05;;;;;;;;;;1741274;28;20203;-75
2024/01/19 08:16:02;;;;;;;22.75;20.08;;;;;;;;;;1741597;28;20577;-74
2024/01/19 08:16:53;;;;;;;21.52;18.80;;;;;;;;;;1741309;28;20652;-74
2024/01/19 08:17:45;;;;;;;19.85;17.00;;;;;;;;;;1741546;28;20203;-74
2024/01/19 08:18:36;;;;;;;20.67;18.48;;;;;;;;;;1741445;28;20203;-75
2024/01/19 08:19:28;;;;;;;23.80;18.65;;;;;;;;;;1741478;28;20215;-74
2024/01/19 08:20:21;;;;;;;23.35;19.13;;;;;;;;;;1741093;28;20235;-74
2024/01/19 08:21:13;;;;;;;20.90;18.73;;;;;;;;;;1741344;28;20203;-74
2024/01/19 08:22:05;;;;;;;22.38;18.90;;;;;;;;;;1741427;28;20214;-74
2024/01/19 08:22:56;;;;;;;22.85;18.30;;;;;;;;;;1741367;28;20195;-75
2024/01/19 08:23:48;;;;;;;22.27;17.65;;;;;;;;;;1741255;28;20229;-75
2024/01/19 08:24:39;;;;;;;25.90;18.75;;;;;;;;;;1741248;28;20207;-75
2024/01/19 08:25:30;;;;;;;19.60;17.40;;;;;;;;;;1735065;28;20227;-75
2024/01/19 08:26:22;;;;;;;19.70;16.65;;;;;;;;;;1741275;28;20209;-75
2024/01/19 08:27:13;;;;;;;20.63;18.05;;;;;;;;;;1741070;28;20218;-74
2024/01/19 08:28:04;;;;;;;21.95;19.27;;;;;;;;;;1741138;28;20602;-75
2024/01/19 08:28:56;;;;;;;21.85;18.35;;;;;;;;;;1741135;28;20207;-74
2024/01/19 08:29:47;;;;;;;19.35;17.30;;;;;;;;;;1741191;28;20707;-74
2024/01/19 08:30:38;;;;;;;20.02;17.20;;;;;;;;;;1740698;28;20252;-74
2024/01/19 08:31:31;;;;;;;19.63;17.52;;;;;;;;;;1741083;28;20207;-74
2024/01/19 08:32:23;;;;;;;21.20;17.42;;;;;;;;;;1741034;28;20256;-75
2024/01/19 08:33:14;;;;;;;21.20;17.20;;;;;;;;;;1741098;28;20201;-74
2024/01/19 08:34:06;;;;;;;19.75;17.45;;;;;;;;;;1741007;28;20644;-74
2024/01/19 08:34:57;;;;;;;22.20;17.17;;;;;;;;;;1740494;28;20214;-74
2024/01/19 08:35:51;;;;;;;19.25;17.25;;;;;;;;;;1740346;28;20202;-75
2024/01/19 08:36:42;;;;;;;22.42;17.33;;;;;;;;;;1740911;28;20207;-74
2024/01/19 08:37:33;;;;;;;21.65;17.67;;;;;;;;;;1740462;28;20203;-74
2024/01/19 08:38:25;;;;;;;29.10;18.20;;;;;;;;;;1740510;28;20290;-74
2024/01/19 08:39:16;;;;;;;23.05;17.80;;;;;;;;;;1740703;28;20206;-74
2024/01/19 08:40:09;;;;;;;18.58;16.58;;;;;;;;;;1740698;28;20199;-74
2024/01/19 08:41:00;;;;;;;19.27;17.27;;;;;;;;;;1741161;28;20568;-74
2024/01/19 08:41:51;;;;;;;19.17;17.10;;;;;;;;;;1741200;28;20719;-74
2024/01/19 08:42:43;;;;;;;19.42;17.38;;;;;;;;;;1740925;28;20252;-74
2024/01/19 08:43:34;;;;;;;18.40;16.50;;;;;;;;;;1740747;28;20214;-75
2024/01/19 08:44:25;;;;;;;19.88;15.85;;;;;;;;;;1740347;28;20203;-75
2024/01/19 08:45:18;;;;;;;19.65;16.55;;;;;;;;;;1737679;28;20310;-75
2024/01/19 08:46:09;;;;;;;18.50;15.80;;;;;;;;;;1738457;28;20210;-74
2024/01/19 08:47:00;;;;;;;18.70;16.67;;;;;;;;;;1737544;28;20589;-74
2024/01/19 08:47:52;;;;;;;17.92;16.02;;;;;;;;;;1738811;28;20578;-75
2024/01/19 08:48:45;;;;;;;17.77;15.60;;;;;;;;;;1741074;28;20207;-75
2024/01/19 08:49:36;;;;;;;21.08;16.45;;;;;;;;;;1740600;28;20221;-74
2024/01/19 08:50:28;;;;;;;19.30;15.65;;;;;;;;;;1737310;28;20564;-74
2024/01/19 08:51:20;;;;;;;17.67;15.88;;;;;;;;;;1737994;28;20567;-74
2024/01/19 08:52:12;;;;;;;19.77;16.90;;;;;;;;;;1737784;28;20196;-74
2024/01/19 08:53:04;;;;;;;16.40;14.68;;;;;;;;;;1739011;28;20209;-73
2024/01/19 08:53:55;;;;;;;20.23;16.88;;;;;;;;;;1737729;28;20210;-74
2024/01/19 08:54:47;;;;;;;18.63;16.20;;;;;;;;;;1738907;28;20195;-75
2024/01/19 08:55:39;;;;;;;19.77;17.17;;;;;;;;;;1738156;28;20652;-75
2024/01/19 08:56:31;;;;;;;17.92;15.00;;;;;;;;;;1737405;28;20623;-74
2024/01/19 08:57:23;;;;;;;18.88;15.15;;;;;;;;;;1736502;28;20817;-75
2024/01/19 08:58:14;;;;;;;17.45;15.55;;;;;;;;;;1737188;28;20203;-75
2024/01/19 08:59:05;;;;;;;21.10;15.45;;;;;;;;;;1738988;28;20194;-74
2024/01/19 08:59:57;;;;;;;19.55;16.85;;;;;;;;;;1737621;28;20278;-74
2024/01/19 09:00:49;;;;;;;19.05;16.02;;;;;;;;;;1737871;28;20231;-74
2024/01/19 09:01:40;;;;;;;21.63;16.95;;;;;;;;;;1734893;28;20214;-74
2024/01/19 09:02:32;;;;;;;17.65;15.70;;;;;;;;;;1735855;28;21049;-74
2024/01/19 09:03:23;;;;;;;18.35;16.45;;;;;;;;;;1740726;28;20218;-75
2024/01/19 09:04:15;;;;;;;20.98;16.88;;;;;;;;;;1740956;28;20199;-74
2024/01/19 09:05:10;;;;;;;18.58;15.55;;;;;;;;;;1740633;28;20249;-75
2024/01/19 09:06:01;;;;;;;19.73;16.70;;;;;;;;;;1740838;28;20199;-74
2024/01/19 09:06:55;;;;;;;19.17;16.55;;;;;;;;;;1740612;28;20195;-74
2024/01/19 09:07:46;;;;;;;18.92;16.42;;;;;;;;;;1741080;28;20207;-74
2024/01/19 09:08:41;;;;;;;18.92;16.55;;;;;;;;;;1740201;28;20584;-74
2024/01/19 09:09:32;;;;;;;18.88;15.68;;;;;;;;;;1740942;28;20659;-74
2024/01/19 09:10:25;;;;;;;22.17;15.98;;;;;;;;;;1739875;28;20711;-75
2024/01/19 09:11:16;;;;;;;25.73;20.60;;;;;;;;;;1740621;28;20210;-74
2024/01/19 09:12:07;;;;;;;31.30;23.42;;;;;;;;;;1740882;28;20241;-75
2024/01/19 09:12:59;;;;;;;26.35;19.02;;;;;;;;;;1740630;28;20207;-74
2024/01/19 09:13:50;;;;;;;21.58;17.55;;;;;;;;;;1740969;28;20219;-75
2024/01/19 09:14:41;;;;;;;25.02;18.45;;;;;;;;;;1740685;28;20214;-75
2024/01/19 09:15:33;;;;;;;24.92;18.70;;;;;;;;;;1740795;28;20199;-75
2024/01/19 09:16:25;;;;;;;19.98;16.73;;;;;;;;;;1740200;28;20199;-74
2024/01/19 09:17:17;;;;;;;19.65;16.70;;;;;;;;;;1740936;28;20672;-75
2024/01/19 09:18:08;;;;;;;19.92;16.35;;;;;;;;;;1740790;28;20581;-74
2024/01/19 09:19:00;;;;;;;19.25;15.35;;;;;;;;;;1740740;28;20199;-75
2024/01/19 09:19:51;;;;;;;18.80;16.42;;;;;;;;;;1740677;28;20203;-74
2024/01/19 09:20:43;;;;;;;22.67;17.42;;;;;;;;;;1740093;28;20634;-75
2024/01/19 09:21:34;;;;;;;19.58;17.27;;;;;;;;;;1740556;28;20579;-74
2024/01/19 09:22:27;;;;;;;19.95;15.88;;;;;;;;;;1740656;28;20207;-74
2024/01/19 09:23:19;;;;;;;16.85;15.05;;;;;;;;;;1740907;28;20195;-74
2024/01/19 09:24:10;;;;;;;18.42;16.02;;;;;;;;;;1740833;28;20718;-74
2024/01/19 09:25:01;;;;;;;19.33;15.65;;;;;;;;;;1740604;28;20195;-74
2024/01/19 09:25:53;;;;;;;19.85;16.73;;;;;;;;;;1740756;28;20191;-74
2024/01/19 09:26:44;;;;;;;18.50;16.52;;;;;;;;;;1740785;28;20207;-74
2024/01/19 09:27:36;;;;;;;18.50;16.63;;;;;;;;;;1740832;28;20729;-74
2024/01/19 09:28:28;;;;;;;20.73;17.35;;;;;;;;;;1740651;28;20199;-74
2024/01/19 09:29:19;;;;;;;17.88;15.98;;;;;;;;;;1740955;28;20195;-74
2024/01/19 09:30:11;;;;;;;18.67;16.33;;;;;;;;;;1739207;28;20199;-74
2024/01/19 09:31:02;;;;;;;20.08;15.93;;;;;;;;;;1733931;28;20192;-74
2024/01/19 09:31:53;;;;;;;17.67;15.50;;;;;;;;;;1738184;28;20199;-74
2024/01/19 09:32:45;;;;;;;19.00;15.13;;;;;;;;;;1734301;28;20223;-74
2024/01/19 09:33:36;;;;;;;18.58;16.02;;;;;;;;;;1737329;28;20207;-74
2024/01/19 09:34:28;;;;;;;17.02;15.20;;;;;;;;;;1740578;28;20206;-74
2024/01/19 09:35:20;;;;;;;17.75;15.32;;;;;;;;;;1739702;28;20584;-74
2024/01/19 09:36:11;;;;;;;18.67;15.40;;;;;;;;;;1733914;28;20206;-74
2024/01/19 09:37:03;;;;;;;20.02;16.90;;;;;;;;;;1733876;28;20200;-74
2024/01/19 09:37:56;;;;;;;20.35;15.35;;;;;;;;;;1733876;28;20204;-74
2024/01/19 09:38:47;;;;;;;20.13;16.42;;;;;;;;;;1733782;28;20763;-74
2024/01/19 09:39:38;;;;;;;16.75;14.63;;;;;;;;;;1739650;28;20207;-74
2024/01/19 09:40:30;;;;;;;23.00;14.85;;;;;;;;;;1739674;28;20195;-74
2024/01/19 09:41:26;;;;;;;18.88;15.25;;;;;;;;;;1739400;28;20253;-74
2024/01/19 09:42:22;;;;;;;18.17;15.45;;;;;;;;;;1740518;28;20257;-74
2024/01/19 09:43:14;;;;;;;22.17;16.08;;;;;;;;;;1740880;28;20227;-74
2024/01/19 09:44:09;;;;;;;17.60;15.75;;;;;;;;;;1740648;28;20239;-74
2024/01/19 09:45:02;;;;;;;19.75;15.38;;;;;;;;;;1740500;28;20209;-74
2024/01/19 09:45:54;;;;;;;18.50;16.13;;;;;;;;;;1740657;28;20188;-74
2024/01/19 09:46:54;;;;;;;20.80;17.17;;;;;;;;;;1740568;28;20203;-74
2024/01/19 09:47:56;;;;;;;18.35;16.42;;;;;;;;;;1740819;28;20699;-74
2024/01/19 09:48:55;;;;;;;17.85;15.70;;;;;;;;;;1740578;28;20203;-74
2024/01/19 09:49:56;;;;;;;20.90;16.83;;;;;;;;;;1740805;28;20195;-73
2024/01/19 09:50:48;;;;;;;17.63;15.73;;;;;;;;;;1740006;28;20195;-74
2024/01/19 09:51:47;;;;;;;18.20;16.30;;;;;;;;;;1740886;28;20252;-73
2024/01/19 09:52:42;;;;;;;19.27;16.73;;;;;;;;;;1740050;28;20250;-73
2024/01/19 09:53:42;;;;;;;18.65;16.63;;;;;;;;;;1740116;28;20715;-73
2024/01/19 09:54:35;;;;;;;19.17;17.17;;;;;;;;;;1740461;28;20203;-73
2024/01/19 09:55:27;;;;;;;18.48;16.58;;;;;;;;;;1740386;28;20675;-73
2024/01/19 09:56:20;;;;;;;20.73;16.75;;;;;;;;;;1740674;28;20466;-74
2024/01/19 09:57:11;;;;;;;18.73;16.73;;;;;;;;;;1740139;28;20229;-73
2024/01/19 09:58:03;;;;;;;18.42;16.42;;;;;;;;;;1740210;28;20199;-74
2024/01/19 09:58:56;;;;;;;20.98;15.25;;;;;;;;;;1740316;28;20683;-74
2024/01/19 09:59:47;;;;;;;14.73;12.77;;;;;;;;;;1740986;28;20203;-73
2024/01/19 10:00:38;;;;;;;18.30;13.20;;;;;;;;;;1739657;28;20203;-73
2024/01/19 10:01:30;;;;;;;18.52;13.23;;;;;;;;;;1740808;28;20206;-74
2024/01/19 10:02:22;;;;;;;16.98;13.43;;;;;;;;;;1740258;28;20218;-74
2024/01/19 10:03:13;;;;;;;16.10;13.90;;;;;;;;;;1740725;28;20227;-74
2024/01/19 10:04:10;;;;;;;15.77;14.02;;;;;;;;;;1740676;28;20221;-74
2024/01/19 10:05:01;;;;;;;16.92;13.70;;;;;;;;;;1740553;28;20199;-74
2024/01/19 10:05:52;;;;;;;15.85;13.93;;;;;;;;;;1741753;28;20194;-74
2024/01/19 10:06:45;;;;;;;17.23;13.80;;;;;;;;;;1741831;28;20201;-74
2024/01/19 10:07:36;;;;;;;15.68;13.88;;;;;;;;;;1741611;28;20195;-74
2024/01/19 10:08:29;;;;;;;20.70;13.70;;;;;;;;;;1741857;28;20196;-75
2024/01/19 10:09:21;;;;;;;14.98;13.38;;;;;;;;;;1741800;28;20585;-74
2024/01/19 10:10:13;;;;;;;17.85;14.55;;;;;;;;;;1740821;28;20215;-74
2024/01/19 10:11:06;;;;;;;17.75;13.90;;;;;;;;;;1741582;28;20548;-74
2024/01/19 10:11:57;;;;;;;17.85;13.80;;;;;;;;;;1741860;28;20207;-74
2024/01/19 10:12:48;;;;;;;16.83;15.02;;;;;;;;;;1741466;28;20209;-74
2024/01/19 10:13:40;;;;;;;16.08;13.85;;;;;;;;;;1741763;28;20203;-75
2024/01/19 10:14:32;;;;;;;16.77;13.93;;;;;;;;;;1741718;28;20210;-74
2024/01/19 10:15:23;;;;;;;13.23;11.90;;;;;;;;;;1741694;28;20282;-74
2024/01/19 10:16:15;;;;;;;11.13;10.07;;;;;;;;;;1741781;28;20568;-74
2024/01/19 10:17:06;;;;;;;12.20;10.90;;;;;;;;;;1741634;28;20234;-74
2024/01/19 10:17:58;;;;;;;15.73;11.73;;;;;;;;;;1741867;28;20671;-74
2024/01/19 10:18:50;;;;;;;14.43;12.85;;;;;;;;;;1741719;28;20215;-74
2024/01/19 10:19:42;;;;;;;14.27;11.70;;;;;;;;;;1741807;28;20288;-75
2024/01/19 10:20:38;;;;;;;12.02;10.80;;;;;;;;;;1740775;28;20730;-74
2024/01/19 10:21:29;;;;;;;14.65;11.80;;;;;;;;;;1741869;28;20218;-75
2024/01/19 10:22:24;;;;;;;13.50;12.20;;;;;;;;;;1741824;28;20655;-74
2024/01/19 10:23:20;;;;;;;12.90;11.65;;;;;;;;;;1741622;28;20742;-75
2024/01/19 10:24:14;;;;;;;12.23;10.98;;;;;;;;;;1741779;28;20353;-74
2024/01/19 10:25:08;;;;;;;12.50;10.52;;;;;;;;;;1741260;28;20553;-74
2024/01/19 10:26:14;;;;;;;12.82;11.52;;;;;;;;;;1741404;28;20196;-75
2024/01/19 10:27:05;;;;;;;11.50;9.82;;;;;;;;;;1737164;28;20289;-75
2024/01/19 10:27:57;;;;;;;14.35;10.80;;;;;;;;;;1738119;28;20188;-74
2024/01/19 10:28:48;;;;;;;16.63;11.63;;;;;;;;;;1739458;28;20196;-74
2024/01/19 10:29:39;;;;;;;12.15;10.82;;;;;;;;;;1738172;28;20195;-74
2024/01/19 10:30:31;;;;;;;12.70;10.20;;;;;;;;;;1737580;28;20209;-74
2024/01/19 10:31:26;;;;;;;14.13;11.05;;;;;;;;;;1737814;28;20204;-74
2024/01/19 10:32:21;;;;;;;14.00;12.07;;;;;;;;;;1738069;28;20195;-73
2024/01/19 10:33:13;;;;;;;13.27;11.43;;;;;;;;;;1737455;28;20749;-74
2024/01/19 10:34:04;;;;;;;12.23;11.02;;;;;;;;;;1739011;28;20220;-74
2024/01/19 10:35:04;;;;;;;14.07;12.57;;;;;;;;;;1738686;28;20204;-74
2024/01/19 10:35:56;;;;;;;14.80;11.80;;;;;;;;;;1739599;28;20198;-74
2024/01/19 10:36:48;;;;;;;11.73;10.23;;;;;;;;;;1741826;28;20222;-74
2024/01/19 10:37:40;;;;;;;12.88;10.85;;;;;;;;;;1742088;28;20213;-74
2024/01/19 10:38:31;;;;;;;11.88;10.68;;;;;;;;;;1741594;28;20211;-74
2024/01/19 10:39:23;;;;;;;12.18;10.90;;;;;;;;;;1742046;28;20613;-74
2024/01/19 10:40:18;;;;;;;12.50;11.20;;;;;;;;;;1741211;28;20837;-74
2024/01/19 10:41:14;;;;;;;12.25;10.48;;;;;;;;;;1741453;28;20226;-74
2024/01/19 10:42:06;;;;;;;14.95;11.30;;;;;;;;;;1740886;28;20187;-74
2024/01/19 10:42:57;;;;;;;12.52;10.93;;;;;;;;;;1741488;28;20207;-75
2024/01/19 10:43:48;;;;;;;13.00;11.40;;;;;;;;;;1741899;28;20234;-74
2024/01/19 10:44:42;;;;;;;12.48;11.15;;;;;;;;;;1741601;28;20300;-74
2024/01/19 10:45:35;;;;;;;14.50;11.95;;;;;;;;;;1741878;28;20215;-74
2024/01/19 10:46:27;;;;;;;14.10;11.85;;;;;;;;;;1741340;28;20272;-74
2024/01/19 10:47:19;;;;;;;18.30;11.52;;;;;;;;;;1741414;28;20626;-73
2024/01/19 10:48:11;;;;;;;13.85;11.52;;;;;;;;;;1741487;28;20641;-74
2024/01/19 10:49:04;;;;;;;13.38;11.95;;;;;;;;;;1738929;28;20231;-74
2024/01/19 10:50:05;;;;;;;11.95;10.68;;;;;;;;;;1741242;28;20199;-74
2024/01/19 10:51:03;;;;;;;14.63;12.20;;;;;;;;;;1740212;28;20196;-74
2024/01/19 10:51:55;;;;;;;11.38;10.02;;;;;;;;;;1741726;28;20207;-74
2024/01/19 10:52:48;;;;;;;11.38;10.27;;;;;;;;;;1741535;28;21129;-75
2024/01/19 10:53:40;;;;;;;11.43;10.02;;;;;;;;;;1741198;28;20199;-75
2024/01/19 10:54:31;;;;;;;11.88;10.68;;;;;;;;;;1741711;28;20290;-74
2024/01/19 10:55:25;;;;;;;11.68;10.55;;;;;;;;;;1741655;28;20195;-74
2024/01/19 10:56:20;;;;;;;11.82;10.63;;;;;;;;;;1741517;28;20214;-74
2024/01/19 10:57:15;;;;;;;10.55;9.50;;;;;;;;;;1741565;28;20253;-74
2024/01/19 10:58:13;;;;;;;13.85;10.90;;;;;;;;;;1741728;28;20248;-74
2024/01/19 10:59:09;;;;;;;12.20;9.30;;;;;;;;;;1741804;28;20572;-74
2024/01/19 11:00:17;;;;;;;12.48;10.70;;;;;;;;;;1741474;28;20195;-75
2024/01/19 11:01:19;;;;;;;11.10;10.00;;;;;;;;;;1740947;28;20227;-74
2024/01/19 11:02:10;;;;;;;11.27;10.13;;;;;;;;;;1741605;28;20196;-74
2024/01/19 11:03:02;;;;;;;11.20;10.05;;;;;;;;;;1741648;28;20210;-74
2024/01/19 11:03:54;;;;;;;12.48;11.07;;;;;;;;;;1741421;28;20219;-74